Terminal Aerodrome Forecast
Issued by NWS

Home | Current Version | Previous Version | Text Only | Print | Product List | Glossary On
Versions: 1 2 3 4 5 6 7 8 9 10 11 12 13 14 15 16 17
488
FTUS41 KBGM 211126
TAFELM
TAF
KELM 211126Z 2112/2212 00000KT 1/2SM FG OVC002
      TEMPO 2112/2114 3SM BR SCT005
     FM211400 31008KT P6SM BKN050
     FM220000 VRB03KT P6SM FEW060 BKN200
     FM220700 00000KT 2SM BR SCT002 BKN200=

USA.gov is the U.S. government's official web portal to all federal, state and local government web resources and services.